Time;durP1;ratioP1;P1;durP2;ratioP2;P2;SDS_P1;SDS_P2;PMS_P1;PMS_P2;Temp;Humidity;BMP_temperature;BMP_pressure;BME280_temperature;BME280_humidity;BME280_pressure;Samples;Min_cycle;Max_cycle;Signal;HPM_P1;HPM_P2
2022/06/30 00:01:39;;;;;;;3.35;3.25;;;21.90;79.30;;;;;;5010060;28;20215;-77
2022/06/30 00:04:07;;;;;;;3.60;3.30;;;21.80;79.30;;;;;;5010798;28;20230;-77
2022/06/30 00:06:33;;;;;;;7.22;3.42;;;21.70;79.20;;;;;;5008999;28;20192;-78
2022/06/30 00:08:58;;;;;;;3.08;2.95;;;21.70;79.60;;;;;;5014053;28;20181;-79
2022/06/30 00:11:24;;;;;;;3.58;3.40;;;21.60;80.00;;;;;;5008067;28;20208;-78
2022/06/30 00:13:50;;;;;;;3.85;3.72;;;21.60;80.40;;;;;;5011413;28;20559;-78
2022/06/30 00:16:16;;;;;;;4.10;3.83;;;21.50;80.30;;;;;;5012337;28;20180;-78
2022/06/30 00:18:42;;;;;;;4.03;3.78;;;21.50;80.70;;;;;;5014438;28;20187;-77
2022/06/30 00:21:09;;;;;;;5.43;3.67;;;21.40;80.80;;;;;;5011687;28;20176;-79
2022/06/30 00:23:35;;;;;;;4.00;3.58;;;21.40;80.80;;;;;;5006690;28;20185;-76
2022/06/30 00:26:01;;;;;;;4.00;3.80;;;21.40;80.70;;;;;;5011673;28;20176;-76
2022/06/30 00:28:26;;;;;;;3.65;3.45;;;21.30;80.40;;;;;;5009513;28;20191;-77
2022/06/30 00:30:52;;;;;;;3.22;3.10;;;21.30;81.30;;;;;;5010219;28;20240;-78
2022/06/30 00:33:19;;;;;;;3.35;3.25;;;21.20;79.70;;;;;;5010713;28;20207;-79
2022/06/30 00:35:45;;;;;;;5.47;4.07;;;21.20;80.10;;;;;;5009278;28;20609;-80
2022/06/30 00:38:11;;;;;;;3.88;3.58;;;21.10;79.90;;;;;;5016828;28;20590;-79
2022/06/30 00:40:40;;;;;;;5.97;5.47;;;21.10;80.40;;;;;;5010455;28;20590;-80
2022/06/30 00:43:05;;;;;;;3.35;3.25;;;21.00;80.30;;;;;;5013032;28;20318;-78
2022/06/30 00:45:32;;;;;;;3.75;3.55;;;21.00;81.30;;;;;;5013385;28;20620;-77
2022/06/30 00:47:59;;;;;;;3.75;3.55;;;21.00;80.20;;;;;;5012140;28;20189;-77
2022/06/30 00:50:26;;;;;;;4.20;3.55;;;20.90;81.00;;;;;;5012310;28;20337;-78
2022/06/30 00:52:52;;;;;;;4.05;3.20;;;20.90;80.90;;;;;;5012593;28;20176;-78
2022/06/30 00:55:20;;;;;;;4.03;3.75;;;20.90;80.50;;;;;;5007200;28;20212;-77
2022/06/30 00:57:46;;;;;;;3.35;3.17;;;20.80;80.50;;;;;;5011716;28;20224;-78
2022/06/30 01:00:13;;;;;;;3.75;3.55;;;20.80;80.80;;;;;;5005702;28;20189;-79
2022/06/30 01:02:40;;;;;;;4.20;3.67;;;20.80;80.80;;;;;;5011407;28;20181;-77
2022/06/30 01:05:07;;;;;;;6.13;5.63;;;20.70;80.20;;;;;;5006798;28;20209;-77
2022/06/30 01:07:34;;;;;;;5.03;4.63;;;20.70;81.30;;;;;;5009576;28;20231;-78
2022/06/30 01:12:46;;;;;;;4.63;4.43;;;20.60;80.90;;;;;;5013539;28;20565;-78
2022/06/30 01:15:13;;;;;;;6.63;6.10;;;20.60;82.20;;;;;;5034731;28;20231;-77
2022/06/30 01:17:39;;;;;;;7.30;6.60;;;20.50;81.50;;;;;;5013079;28;20189;-77
2022/06/30 01:20:06;;;;;;;9.00;8.05;;;20.50;81.70;;;;;;5014741;28;20254;-77
2022/06/30 01:22:33;;;;;;;7.68;6.97;;;20.50;82.00;;;;;;5015227;28;20211;-76
2022/06/30 01:24:58;;;;;;;8.88;6.95;;;20.40;83.40;;;;;;5010953;28;22107;-77
2022/06/30 01:27:24;;;;;;;8.07;7.38;;;20.40;83.80;;;;;;5007283;28;20223;-77
2022/06/30 01:29:53;;;;;;;4.82;4.43;;;20.30;82.80;;;;;;5015806;28;20190;-77
2022/06/30 01:32:19;;;;;;;3.78;3.47;;;20.30;82.00;;;;;;5016304;28;20196;-78
2022/06/30 01:34:45;;;;;;;3.28;3.08;;;20.20;81.30;;;;;;5017444;28;20238;-78
2022/06/30 01:37:11;;;;;;;3.60;3.40;;;20.20;83.10;;;;;;5017608;28;20188;-78
2022/06/30 01:39:36;;;;;;;3.50;3.35;;;20.10;83.30;;;;;;5008794;28;20712;-77
2022/06/30 01:42:03;;;;;;;3.88;3.55;;;20.10;83.50;;;;;;5014227;28;20185;-78
2022/06/30 01:44:28;;;;;;;3.53;3.20;;;20.10;84.40;;;;;;5016091;28;20245;-77
2022/06/30 01:46:54;;;;;;;3.40;3.28;;;20.10;83.60;;;;;;5013739;28;20189;-78
2022/06/30 01:49:20;;;;;;;6.80;3.63;;;20.10;83.20;;;;;;5012690;28;20192;-79
2022/06/30 01:51:46;;;;;;;3.40;3.28;;;20.00;83.40;;;;;;5021670;28;20180;-77
2022/06/30 01:54:11;;;;;;;5.88;3.25;;;20.00;83.30;;;;;;5011664;28;20985;-77
2022/06/30 01:56:38;;;;;;;3.03;2.92;;;20.00;84.20;;;;;;5012860;28;20758;-78
2022/06/30 01:59:05;;;;;;;3.83;3.00;;;20.00;84.70;;;;;;5010444;28;20977;-77
2022/06/30 02:01:31;;;;;;;3.88;3.58;;;19.90;84.20;;;;;;5010134;28;20193;-77
2022/06/30 02:04:46;;;;;;;3.85;3.65;;;19.90;83.70;;;;;;5012316;28;20792;-78
2022/06/30 02:06:47;;;;;;;4.55;3.58;;;19.90;83.60;;;;;;5008475;28;20199;-76
2022/06/30 02:09:13;;;;;;;3.13;3.03;;;19.80;83.60;;;;;;5011408;28;20260;-76
2022/06/30 02:11:39;;;;;;;2.80;2.70;;;19.80;83.90;;;;;;5009579;28;20259;-76
2022/06/30 02:14:05;;;;;;;3.40;3.30;;;19.80;83.70;;;;;;5008490;28;20585;-76
2022/06/30 02:16:30;;;;;;;3.08;2.92;;;19.80;83.80;;;;;;5013252;28;20179;-77
2022/06/30 02:18:57;;;;;;;4.05;3.85;;;19.80;84.80;;;;;;5012534;28;20180;-76
2022/06/30 02:21:22;;;;;;;3.53;3.33;;;19.80;84.00;;;;;;5010786;28;20221;-76
2022/06/30 02:23:48;;;;;;;4.32;3.75;;;19.80;85.60;;;;;;5014655;28;20634;-77
2022/06/30 02:26:14;;;;;;;3.33;3.13;;;19.80;85.90;;;;;;5009853;28;20694;-77
2022/06/30 02:28:39;;;;;;;3.65;3.45;;;19.70;85.80;;;;;;5011273;28;20646;-76
2022/06/30 02:31:05;;;;;;;3.65;3.45;;;19.70;85.20;;;;;;5016172;28;20264;-79
2022/06/30 02:33:31;;;;;;;3.28;3.08;;;19.70;84.70;;;;;;5007300;28;20188;-78
2022/06/30 02:35:56;;;;;;;3.03;2.75;;;19.70;85.00;;;;;;5011153;28;20185;-77
2022/06/30 02:38:22;;;;;;;3.28;3.08;;;19.70;84.70;;;;;;5010388;28;20678;-77
2022/06/30 02:40:48;;;;;;;3.00;2.90;;;19.70;84.70;;;;;;5008618;28;20185;-78
2022/06/30 02:43:13;;;;;;;3.40;3.28;;;19.70;84.80;;;;;;5013172;28;20646;-77
2022/06/30 02:45:39;;;;;;;3.05;2.88;;;19.70;84.50;;;;;;5015700;28;20296;-77
2022/06/30 02:48:05;;;;;;;3.30;3.13;;;19.60;84.40;;;;;;5014464;28;20243;-79
2022/06/30 02:50:31;;;;;;;3.13;3.03;;;19.60;85.00;;;;;;5009265;28;20636;-79
2022/06/30 02:52:57;;;;;;;3.17;2.97;;;19.60;85.20;;;;;;5009241;28;20191;-77
2022/06/30 02:55:23;;;;;;;3.65;3.15;;;19.60;85.60;;;;;;5014899;28;20276;-77
2022/06/30 02:57:49;;;;;;;3.78;3.47;;;19.60;85.10;;;;;;5007576;28;20185;-78
2022/06/30 03:00:16;;;;;;;3.88;3.67;;;19.60;84.20;;;;;;5008983;28;20209;-77
2022/06/30 03:02:41;;;;;;;3.13;2.85;;;19.50;84.80;;;;;;5009059;28;20255;-77
2022/06/30 03:05:08;;;;;;;3.05;2.95;;;19.50;85.50;;;;;;5010736;28;20258;-77
2022/06/30 03:07:34;;;;;;;3.13;2.90;;;19.50;85.60;;;;;;5012982;28;20196;-78
2022/06/30 03:10:00;;;;;;;2.70;2.60;;;19.50;85.30;;;;;;5010465;28;20834;-77
2022/06/30 03:12:25;;;;;;;4.88;2.97;;;19.50;85.40;;;;;;5004621;28;20219;-79
2022/06/30 03:14:51;;;;;;;3.05;2.95;;;19.40;85.00;;;;;;5011446;28;20208;-79
2022/06/30 03:17:17;;;;;;;2.45;2.45;;;19.40;85.10;;;;;;5010925;28;20188;-79
2022/06/30 03:19:43;;;;;;;2.70;2.60;;;19.40;85.10;;;;;;5017793;28;20187;-78
2022/06/30 03:22:08;;;;;;;2.95;2.85;;;19.40;85.00;;;;;;5011407;28;20180;-80
2022/06/30 03:24:34;;;;;;;2.80;2.70;;;19.40;84.80;;;;;;5011944;28;20713;-79
2022/06/30 03:27:00;;;;;;;3.17;3.08;;;19.40;84.80;;;;;;5013170;28;20189;-79
2022/06/30 03:29:25;;;;;;;3.47;3.25;;;19.30;84.70;;;;;;5010737;28;20188;-79
2022/06/30 03:31:51;;;;;;;3.25;3.05;;;19.30;83.60;;;;;;5009568;28;20662;-78
2022/06/30 03:34:17;;;;;;;2.83;2.72;;;19.30;83.90;;;;;;5013230;28;20199;-77
2022/06/30 03:36:43;;;;;;;2.70;2.67;;;19.30;83.90;;;;;;5010910;28;20192;-78
2022/06/30 03:39:10;;;;;;;2.50;2.40;;;19.30;83.70;;;;;;5010004;28;20189;-78
2022/06/30 03:41:35;;;;;;;3.00;2.90;;;19.30;83.90;;;;;;5015165;28;20173;-77
2022/06/30 03:44:01;;;;;;;3.30;3.00;;;19.30;83.90;;;;;;5011415;28;20899;-77
2022/06/30 03:46:27;;;;;;;3.08;2.88;;;19.40;84.20;;;;;;5007055;28;20181;-78
2022/06/30 03:48:53;;;;;;;3.28;3.08;;;19.40;83.90;;;;;;5011597;28;20626;-78
2022/06/30 03:51:18;;;;;;;3.50;3.30;;;19.40;84.40;;;;;;5009657;28;20602;-78
2022/06/30 03:53:44;;;;;;;2.83;2.72;;;19.50;84.00;;;;;;5011875;28;20188;-78
2022/06/30 03:56:10;;;;;;;3.33;3.17;;;19.50;83.80;;;;;;5001189;28;20189;-79
2022/06/30 03:58:35;;;;;;;4.05;3.00;;;19.50;84.50;;;;;;5012331;28;20180;-78
2022/06/30 04:01:01;;;;;;;3.22;3.13;;;19.50;83.80;;;;;;5009043;28;20576;-78
2022/06/30 04:03:27;;;;;;;3.20;3.10;;;19.60;83.80;;;;;;5007344;28;20266;-79
2022/06/30 04:05:53;;;;;;;3.30;3.05;;;19.60;84.00;;;;;;5008743;28;20264;-78
2022/06/30 04:08:18;;;;;;;3.95;3.75;;;19.60;83.70;;;;;;5014873;28;20181;-75
2022/06/30 04:10:44;;;;;;;4.03;3.72;;;19.70;84.20;;;;;;5012751;28;20181;-75
2022/06/30 04:13:10;;;;;;;3.83;3.50;;;19.70;83.80;;;;;;5009575;28;20199;-76
2022/06/30 04:15:35;;;;;;;3.75;3.50;;;19.70;84.60;;;;;;5009173;28;20309;-75
2022/06/30 04:18:01;;;;;;;3.40;3.20;;;19.80;83.70;;;;;;5009252;28;20232;-76
2022/06/30 04:20:27;;;;;;;3.50;3.20;;;19.80;84.60;;;;;;5014708;28;20196;-75
2022/06/30 04:22:53;;;;;;;4.15;3.30;;;19.90;84.00;;;;;;5010473;28;20674;-76
2022/06/30 04:25:20;;;;;;;3.63;3.47;;;19.90;84.30;;;;;;5018266;28;20213;-76
2022/06/30 04:27:51;;;;;;;4.13;3.95;;;19.90;84.00;;;;;;5014198;28;20195;-76
2022/06/30 04:32:37;;;;;;;5.25;4.18;;;20.00;84.00;;;;;;5012975;28;20766;-74
2022/06/30 04:33:05;;;;;;;4.13;3.70;;;20.00;84.40;;;;;;5013788;28;20220;-75
2022/06/30 04:35:31;;;;;;;4.38;3.95;;;20.00;84.60;;;;;;5013875;28;20185;-75
2022/06/30 04:37:58;;;;;;;3.80;3.70;;;20.10;85.30;;;;;;5011230;28;20188;-76
2022/06/30 04:43:09;;;;;;;4.30;4.10;;;20.20;85.30;;;;;;5010288;28;20188;-76
2022/06/30 04:45:34;;;;;;;4.90;4.28;;;20.20;84.90;;;;;;5011791;28;20207;-75
2022/06/30 04:48:00;;;;;;;4.25;4.00;;;20.20;84.60;;;;;;5014163;28;20181;-76
2022/06/30 04:50:26;;;;;;;4.20;3.88;;;20.30;84.30;;;;;;5017126;28;20184;-76
2022/06/30 04:52:51;;;;;;;4.70;4.40;;;20.30;85.00;;;;;;5015692;28;20181;-75
2022/06/30 04:55:17;;;;;;;4.38;4.03;;;20.30;84.30;;;;;;5013930;28;20215;-75
2022/06/30 04:57:43;;;;;;;4.30;4.00;;;20.40;84.50;;;;;;5011624;28;20336;-76
2022/06/30 05:00:09;;;;;;;4.22;3.90;;;20.40;85.00;;;;;;5016272;28;20826;-76
2022/06/30 05:02:35;;;;;;;3.50;3.40;;;20.50;84.80;;;;;;5020856;28;20185;-76
2022/06/30 05:05:00;;;;;;;3.97;3.78;;;20.50;85.00;;;;;;5011728;28;20235;-75
2022/06/30 05:07:26;;;;;;;3.90;3.70;;;20.50;84.70;;;;;;5011678;28;20189;-74
2022/06/30 05:09:51;;;;;;;4.05;3.85;;;20.60;85.30;;;;;;5013587;28;20189;-75
2022/06/30 05:12:17;;;;;;;5.50;5.07;;;20.60;85.40;;;;;;5014662;28;20181;-77
2022/06/30 05:14:43;;;;;;;5.00;4.60;;;20.70;85.80;;;;;;5010347;28;20193;-75
2022/06/30 05:17:09;;;;;;;6.43;5.55;;;20.70;85.10;;;;;;5016449;28;20671;-74
2022/06/30 05:19:34;;;;;;;7.97;4.70;;;20.80;85.10;;;;;;5010346;28;20692;-76
2022/06/30 05:22:01;;;;;;;5.82;5.45;;;20.80;85.80;;;;;;5011226;28;20280;-74
2022/06/30 05:27:11;;;;;;;6.45;5.90;;;20.80;84.20;;;;;;5007123;28;20587;-74
2022/06/30 05:29:37;;;;;;;5.30;4.88;;;20.90;84.40;;;;;;5015998;28;20189;-77
2022/06/30 05:32:03;;;;;;;5.93;5.43;;;20.90;84.30;;;;;;5011969;28;20181;-75
2022/06/30 05:34:28;;;;;;;5.90;5.38;;;21.00;84.50;;;;;;5015643;28;20222;-76
2022/06/30 05:36:54;;;;;;;10.13;7.18;;;21.00;84.10;;;;;;5019396;28;20185;-74
2022/06/30 05:39:20;;;;;;;8.38;7.20;;;21.00;84.20;;;;;;5008004;28;20299;-75
2022/06/30 05:41:45;;;;;;;6.63;6.13;;;21.00;83.60;;;;;;5014762;28;20193;-76
2022/06/30 05:44:11;;;;;;;6.65;5.97;;;21.10;83.70;;;;;;5019516;28;20216;-77
2022/06/30 05:46:37;;;;;;;7.43;6.82;;;21.10;84.00;;;;;;5017646;28;20221;-77
2022/06/30 05:49:03;;;;;;;6.00;5.60;;;21.20;84.10;;;;;;5011663;28;20259;-76
2022/06/30 05:51:29;;;;;;;5.60;4.93;;;21.20;83.80;;;;;;5015431;28;20199;-75
2022/06/30 05:53:54;;;;;;;6.03;5.60;;;21.30;83.60;;;;;;5008772;28;20582;-75
2022/06/30 05:56:20;;;;;;;5.43;5.00;;;21.30;83.50;;;;;;5008729;28;20735;-77
2022/06/30 05:58:46;;;;;;;4.40;4.03;;;;;;;;;;5011476;28;20215;-75
2022/06/30 06:01:12;;;;;;;4.30;4.05;;;21.50;83.80;;;;;;5008535;28;20670;-76
2022/06/30 06:03:38;;;;;;;5.85;4.05;;;21.50;85.10;;;;;;5007467;28;20203;-76
2022/06/30 06:06:03;;;;;;;4.55;4.13;;;21.60;83.90;;;;;;5012067;28;20206;-76
2022/06/30 06:08:29;;;;;;;5.35;4.93;;;;;;;;;;5001117;28;20666;-76
2022/06/30 06:10:55;;;;;;;5.07;4.78;;;21.70;83.70;;;;;;5011380;28;20180;-75
2022/06/30 06:13:21;;;;;;;6.68;4.57;;;21.70;83.20;;;;;;5002663;28;20205;-74
2022/06/30 06:15:47;;;;;;;5.10;4.75;;;21.70;83.30;;;;;;5009024;28;20771;-75
2022/06/30 06:18:13;;;;;;;5.47;4.93;;;21.80;83.50;;;;;;5006665;28;21252;-76
2022/06/30 06:20:38;;;;;;;5.20;4.40;;;21.90;83.40;;;;;;5002685;28;20297;-76
2022/06/30 06:23:04;;;;;;;4.40;4.10;;;22.00;83.10;;;;;;5003216;28;20176;-76
2022/06/30 06:25:29;;;;;;;4.80;4.00;;;22.00;83.10;;;;;;5011349;28;20224;-76
2022/06/30 06:30:39;;;;;;;4.07;3.88;;;22.10;82.70;;;;;;5008069;28;20188;-76
2022/06/30 06:33:06;;;;;;;4.28;3.80;;;22.20;82.30;;;;;;5009801;28;20595;-75
2022/06/30 06:35:32;;;;;;;3.90;3.70;;;22.30;82.00;;;;;;5004768;28;20241;-76
2022/06/30 06:37:58;;;;;;;4.53;4.10;;;22.30;81.90;;;;;;5012986;28;20185;-76
2022/06/30 06:40:24;;;;;;;4.65;4.18;;;22.40;81.50;;;;;;5006261;28;20220;-76
2022/06/30 06:42:50;;;;;;;4.35;3.30;;;22.40;81.50;;;;;;5014002;28;20179;-76
2022/06/30 06:45:15;;;;;;;3.72;3.53;;;22.50;81.40;;;;;;5006121;28;20209;-76
2022/06/30 06:47:41;;;;;;;3.22;3.13;;;22.50;81.30;;;;;;5005032;28;20264;-76
2022/06/30 06:50:07;;;;;;;3.42;3.22;;;22.60;81.40;;;;;;5008869;28;20216;-75
2022/06/30 06:52:33;;;;;;;4.13;3.92;;;22.60;81.70;;;;;;5012099;28;20181;-75
2022/06/30 06:54:59;;;;;;;4.20;4.00;;;22.70;81.80;;;;;;5002716;28;20188;-74
2022/06/30 06:57:31;;;;;;;4.15;3.92;;;22.80;81.20;;;;;;4973610;28;20196;-75
2022/06/30 06:59:57;;;;;;;4.70;4.25;;;22.80;81.40;;;;;;4975021;28;20595;-76
2022/06/30 07:02:23;;;;;;;4.60;4.30;;;22.90;81.20;;;;;;4971967;28;20243;-76
2022/06/30 07:04:48;;;;;;;5.10;4.70;;;22.90;81.10;;;;;;4971738;28;20240;-75
2022/06/30 07:07:14;;;;;;;5.00;4.60;;;23.00;80.80;;;;;;4971708;28;20189;-75
2022/06/30 07:09:40;;;;;;;5.25;4.90;;;23.00;80.10;;;;;;4976344;28;20200;-77
2022/06/30 07:12:06;;;;;;;4.70;4.43;;;23.10;80.10;;;;;;4996377;28;20181;-75
2022/06/30 07:14:32;;;;;;;4.93;4.13;;;23.20;80.50;;;;;;4979881;28;20613;-76
2022/06/30 07:16:57;;;;;;;4.57;4.18;;;23.40;80.70;;;;;;5002833;28;20185;-76
2022/06/30 07:19:23;;;;;;;4.78;4.45;;;23.40;80.50;;;;;;5009438;28;20957;-75
2022/06/30 07:21:49;;;;;;;5.13;4.72;;;23.40;80.30;;;;;;5007653;28;20191;-75
2022/06/30 07:24:14;;;;;;;4.72;4.50;;;23.50;79.80;;;;;;5011566;28;20216;-74
2022/06/30 07:26:40;;;;;;;8.57;7.07;;;23.60;79.60;;;;;;5008722;28;20204;-74
2022/06/30 07:29:05;;;;;;;6.10;5.57;;;23.70;78.80;;;;;;5008479;28;20215;-75
2022/06/30 07:31:31;;;;;;;6.38;5.68;;;23.70;77.80;;;;;;5012970;28;20751;-74
2022/06/30 07:33:57;;;;;;;5.30;5.00;;;23.70;77.20;;;;;;5004630;28;20204;-74
2022/06/30 07:36:22;;;;;;;5.75;5.30;;;23.80;77.50;;;;;;5011391;28;20188;-75
2022/06/30 07:38:49;;;;;;;4.53;4.07;;;23.70;74.80;;;;;;5001315;28;20492;-74
2022/06/30 07:41:15;;;;;;;7.25;4.30;;;23.80;76.50;;;;;;4999702;28;20656;-76
2022/06/30 07:43:41;;;;;;;6.07;4.55;;;23.90;76.70;;;;;;5000304;28;20643;-76
2022/06/30 07:46:07;;;;;;;4.95;4.38;;;23.90;75.80;;;;;;5001737;28;20548;-75
2022/06/30 07:48:34;;;;;;;4.03;3.72;;;24.00;75.70;;;;;;5002098;28;20196;-75
2022/06/30 07:51:00;;;;;;;4.65;3.88;;;24.20;77.30;;;;;;4999770;28;20684;-75
2022/06/30 07:53:25;;;;;;;4.50;4.10;;;24.20;76.50;;;;;;5011971;28;20184;-74
2022/06/30 07:55:51;;;;;;;4.35;3.95;;;24.30;76.30;;;;;;5002615;28;20192;-74
2022/06/30 07:58:17;;;;;;;4.03;3.63;;;24.30;76.40;;;;;;5003409;28;20177;-73
2022/06/30 08:00:42;;;;;;;4.57;4.13;;;24.40;76.50;;;;;;5016454;28;20238;-73
2022/06/30 08:03:08;;;;;;;4.50;4.20;;;24.50;76.20;;;;;;5016900;28;20198;-74
2022/06/30 08:05:34;;;;;;;4.53;4.18;;;24.50;75.80;;;;;;4996883;28;20216;-73
2022/06/30 08:08:00;;;;;;;5.28;4.07;;;24.60;75.50;;;;;;4999323;28;20195;-74
2022/06/30 08:10:27;;;;;;;3.53;3.22;;;24.70;75.40;;;;;;5002027;28;20631;-73
2022/06/30 08:12:52;;;;;;;3.97;3.58;;;24.80;75.00;;;;;;5002110;28;20657;-74
2022/06/30 08:15:18;;;;;;;3.55;3.40;;;24.90;75.50;;;;;;5001780;28;20192;-74
2022/06/30 08:17:44;;;;;;;3.55;3.45;;;24.90;75.40;;;;;;4998612;28;20191;-77
2022/06/30 08:20:10;;;;;;;4.20;3.75;;;25.00;75.60;;;;;;5002401;28;20184;-73
2022/06/30 08:22:35;;;;;;;3.63;3.33;;;25.00;75.00;;;;;;5003619;28;20188;-73
2022/06/30 08:25:02;;;;;;;3.55;3.30;;;25.10;74.30;;;;;;4999525;28;20208;-73
2022/06/30 08:27:28;;;;;;;3.22;3.13;;;25.20;73.60;;;;;;5004192;28;20216;-72
2022/06/30 08:29:54;;;;;;;3.40;3.20;;;25.20;74.40;;;;;;5003844;28;20181;-73
2022/06/30 08:32:20;;;;;;;3.00;2.90;;;25.30;74.60;;;;;;5003317;28;20247;-72
2022/06/30 08:34:45;;;;;;;4.18;3.90;;;25.40;74.10;;;;;;5004959;28;20204;-73
2022/06/30 08:37:11;;;;;;;3.47;3.28;;;25.40;74.00;;;;;;4998890;28;20259;-72
2022/06/30 08:42:22;;;;;;;3.30;3.00;;;25.60;73.80;;;;;;4997910;28;20254;-76
2022/06/30 08:47:32;;;;;;;4.72;2.85;;;25.70;72.90;;;;;;5004536;28;20188;-72
2022/06/30 08:49:58;;;;;;;3.20;3.10;;;25.80;73.30;;;;;;4996753;28;20181;-72
2022/06/30 08:52:28;;;;;;;3.15;3.05;;;25.90;73.20;;;;;;5004158;28;20698;-72
2022/06/30 08:54:54;;;;;;;3.60;3.50;;;25.90;73.10;;;;;;5003930;28;20260;-72
2022/06/30 08:57:21;;;;;;;3.80;3.08;;;26.00;73.00;;;;;;5004447;28;20793;-73
2022/06/30 08:59:46;;;;;;;3.92;3.63;;;26.10;73.70;;;;;;5003855;28;20216;-74
2022/06/30 09:02:12;;;;;;;4.32;3.15;;;26.20;71.50;;;;;;5003976;28;20570;-73
2022/06/30 09:04:38;;;;;;;3.42;3.25;;;26.30;70.80;;;;;;5004217;28;20197;-74
2022/06/30 09:07:04;;;;;;;2.60;2.60;;;26.40;71.80;;;;;;5004562;28;20185;-73
2022/06/30 09:09:30;;;;;;;4.75;3.08;;;26.40;72.40;;;;;;5004425;28;20313;-72
2022/06/30 09:11:57;;;;;;;3.90;3.65;;;26.50;71.30;;;;;;5004076;28;20234;-73
2022/06/30 09:14:37;;;;;;;3.40;3.20;;;26.60;70.30;;;;;;5004515;28;20189;-73
2022/06/30 09:17:05;;;;;;;4.75;2.70;;;26.60;71.20;;;;;;5004175;28;20184;-73
2022/06/30 09:19:32;;;;;;;5.38;3.97;;;26.80;70.70;;;;;;5004442;28;20612;-73
2022/06/30 09:22:10;;;;;;;3.20;3.00;;;26.80;71.50;;;;;;5004358;28;20180;-73
2022/06/30 09:24:36;;;;;;;3.90;3.55;;;27.00;70.50;;;;;;5004357;28;20197;-73
2022/06/30 09:27:24;;;;;;;3.10;2.90;;;27.10;70.20;;;;;;5003793;28;20238;-73
2022/06/30 09:29:51;;;;;;;3.13;3.03;;;27.20;69.10;;;;;;5003843;28;20247;-72
2022/06/30 09:32:18;;;;;;;3.85;2.58;;;27.30;68.20;;;;;;5004539;28;20216;-72
2022/06/30 09:34:46;;;;;;;2.70;2.60;;;27.30;66.70;;;;;;4966297;28;1120072;-73
2022/06/30 09:37:20;;;;;;;3.03;2.92;;;27.40;66.30;;;;;;5005041;28;20267;-73
2022/06/30 09:39:47;;;;;;;3.65;2.70;;;27.50;67.50;;;;;;5005010;28;20203;-72
2022/06/30 09:42:13;;;;;;;3.13;3.03;;;27.60;68.20;;;;;;5005026;28;20180;-73
2022/06/30 09:44:39;;;;;;;4.80;3.25;;;27.70;66.10;;;;;;5004820;28;20204;-72
2022/06/30 09:47:10;;;;;;;3.35;3.05;;;27.80;66.70;;;;;;5004885;28;20189;-73
2022/06/30 09:49:45;;;;;;;4.05;3.05;;;27.90;66.90;;;;;;5004844;28;20189;-73
2022/06/30 09:52:19;;;;;;;4.78;2.70;;;28.00;67.70;;;;;;5004854;28;20184;-73
2022/06/30 09:54:56;;;;;;;2.97;2.78;;;28.10;66.80;;;;;;5004846;28;20287;-73
2022/06/30 09:57:24;;;;;;;2.95;2.85;;;28.20;65.60;;;;;;5004482;28;20180;-72
2022/06/30 10:00:07;;;;;;;3.13;3.00;;;28.30;65.00;;;;;;5003098;28;20587;-74
2022/06/30 10:02:35;;;;;;;3.30;3.10;;;28.30;66.30;;;;;;5004346;28;20254;-73
2022/06/30 10:05:03;;;;;;;3.33;3.13;;;28.50;66.80;;;;;;5004267;28;20639;-72
2022/06/30 10:07:29;;;;;;;5.10;3.05;;;28.60;65.40;;;;;;5004419;28;20181;-73
2022/06/30 10:09:55;;;;;;;3.03;2.92;;;28.70;67.10;;;;;;5003143;28;20169;-73
2022/06/30 10:12:24;;;;;;;2.75;2.65;;;28.90;67.20;;;;;;5004139;28;20184;-72
2022/06/30 10:14:51;;;;;;;3.13;2.17;;;29.10;63.40;;;;;;5003514;28;20647;-74
2022/06/30 10:17:28;;;;;;;2.70;2.42;;;29.20;63.50;;;;;;5003497;28;20173;-73
2022/06/30 10:19:55;;;;;;;2.15;2.15;;;29.30;64.30;;;;;;4997049;28;20635;-73
2022/06/30 10:22:23;;;;;;;2.95;2.85;;;29.50;64.00;;;;;;5004101;28;20181;-72
2022/06/30 10:24:52;;;;;;;2.22;2.13;;;29.50;64.30;;;;;;5003678;28;20895;-73
2022/06/30 10:27:20;;;;;;;2.20;2.20;;;30.10;59.60;;;;;;5003402;28;20469;-74
2022/06/30 10:29:56;;;;;;;2.53;2.33;;;30.10;59.60;;;;;;5001106;28;20185;-73
2022/06/30 10:32:48;;;;;;;2.40;2.30;;;30.30;59.50;;;;;;5001479;28;20185;-72
2022/06/30 10:35:18;;;;;;;4.22;2.38;;;30.40;60.30;;;;;;5001250;28;20734;-72
2022/06/30 10:38:02;;;;;;;2.08;1.98;;;30.60;60.80;;;;;;4995818;28;20663;-73
2022/06/30 10:40:49;;;;;;;2.38;2.20;;;30.90;60.40;;;;;;5003880;28;20206;-73
2022/06/30 10:43:16;;;;;;;3.72;2.17;;;31.20;57.50;;;;;;5000336;28;20185;-73
2022/06/30 10:45:58;;;;;;;2.10;2.00;;;31.60;57.20;;;;;;4999011;28;20212;-73
2022/06/30 10:48:27;;;;;;;3.58;2.50;;;32.00;56.00;;;;;;5002561;28;20185;-73
2022/06/30 10:50:53;;;;;;;2.15;2.15;;;32.50;55.80;;;;;;5003530;28;20654;-73
2022/06/30 10:53:38;;;;;;;2.35;2.20;;;33.10;55.40;;;;;;5002224;28;20188;-72
2022/06/30 10:56:04;;;;;;;2.22;2.00;;;33.70;55.40;;;;;;5001554;28;20193;-74
2022/06/30 10:58:30;;;;;;;3.42;2.92;;;34.10;54.60;;;;;;4999784;28;20204;-73
2022/06/30 11:00:59;;;;;;;2.38;2.20;;;34.60;53.80;;;;;;4993046;28;20194;-74
2022/06/30 11:03:32;;;;;;;2.40;2.20;;;35.20;51.20;;;;;;5002070;28;20262;-73
2022/06/30 11:06:09;;;;;;;2.58;2.33;;;35.80;50.20;;;;;;4984546;28;20556;-73
2022/06/30 11:08:52;;;;;;;1.85;1.75;;;36.50;53.00;;;;;;4991431;28;20565;-74
2022/06/30 11:11:20;;;;;;;2.10;2.10;;;36.80;50.10;;;;;;4997145;28;20689;-73
2022/06/30 11:13:47;;;;;;;2.13;2.03;;;37.20;50.10;;;;;;4998239;28;20266;-73
2022/06/30 11:16:18;;;;;;;2.28;2.17;;;37.60;49.30;;;;;;4998811;28;20196;-73
2022/06/30 11:18:44;;;;;;;1.60;1.60;;;38.00;49.40;;;;;;5002719;28;20661;-73
2022/06/30 11:21:10;;;;;;;1.58;1.58;;;38.50;48.60;;;;;;5002999;28;20637;-74
2022/06/30 11:23:46;;;;;;;1.95;1.92;;;39.10;46.90;;;;;;5001882;28;20276;-73
2022/06/30 11:29:04;;;;;;;1.83;1.83;;;39.30;47.10;;;;;;5003129;28;20284;-73
2022/06/30 11:31:34;;;;;;;1.90;1.77;;;39.50;47.60;;;;;;5002482;28;20752;-73
2022/06/30 11:33:59;;;;;;;2.45;1.48;;;39.60;46.90;;;;;;5001648;28;20638;-72
2022/06/30 11:36:26;;;;;;;1.73;1.63;;;39.20;48.10;;;;;;4992160;28;20181;-73
2022/06/30 11:38:54;;;;;;;1.77;1.77;;;39.20;45.90;;;;;;4998504;28;20196;-73
2022/06/30 11:44:12;;;;;;;1.55;1.55;;;39.20;46.40;;;;;;5003204;28;20307;-73
2022/06/30 11:46:54;;;;;;;1.30;1.30;;;39.40;48.60;;;;;;5002880;28;20187;-73
2022/06/30 11:49:22;;;;;;;1.42;1.42;;;39.60;45.40;;;;;;5003033;28;20674;-73
2022/06/30 11:51:48;;;;;;;1.33;1.30;;;39.80;48.70;;;;;;5002850;28;20194;-73
2022/06/30 11:54:16;;;;;;;5.55;1.75;;;39.90;46.10;;;;;;5002976;28;20831;-73
2022/06/30 11:56:48;;;;;;;1.85;1.80;;;40.00;47.40;;;;;;5002427;28;20180;-74
2022/06/30 11:59:14;;;;;;;1.45;1.45;;;40.10;46.20;;;;;;5002937;28;20623;-73
2022/06/30 12:01:41;;;;;;;2.38;1.40;;;40.50;43.70;;;;;;5002353;28;20188;-73
2022/06/30 12:04:17;;;;;;;1.83;1.58;;;40.50;45.00;;;;;;5002136;28;20386;-73
2022/06/30 12:06:43;;;;;;;1.58;1.50;;;40.60;44.40;;;;;;5002619;28;20714;-73
2022/06/30 12:09:10;;;;;;;2.00;1.35;;;40.60;47.00;;;;;;5001918;28;20665;-73
2022/06/30 12:11:37;;;;;;;1.60;1.60;;;40.90;46.10;;;;;;5002313;28;20172;-73
2022/06/30 12:14:02;;;;;;;1.27;1.27;;;40.70;45.20;;;;;;5002577;28;20216;-73
2022/06/30 12:16:28;;;;;;;1.20;1.20;;;40.60;46.90;;;;;;5002667;28;20219;-73
2022/06/30 12:18:54;;;;;;;1.48;1.48;;;40.60;44.60;;;;;;5002277;28;20639;-74
2022/06/30 12:21:20;;;;;;;1.85;1.13;;;40.80;46.30;;;;;;5001995;28;20184;-72
2022/06/30 12:23:48;;;;;;;0.90;0.90;;;41.00;44.90;;;;;;5002151;28;20181;-73
2022/06/30 12:26:15;;;;;;;1.20;1.20;;;41.10;42.90;;;;;;5002652;28;20212;-72
2022/06/30 12:28:55;;;;;;;2.10;1.17;;;40.80;43.30;;;;;;5002254;28;20271;-72
2022/06/30 12:31:29;;;;;;;1.67;1.25;;;40.70;43.30;;;;;;5003199;28;20182;-73
2022/06/30 12:33:57;;;;;;;2.25;1.02;;;40.70;45.40;;;;;;5002561;28;20936;-72
2022/06/30 12:36:24;;;;;;;0.98;0.98;;;40.90;45.20;;;;;;5002157;28;20685;-73
2022/06/30 12:38:50;;;;;;;1.30;1.30;;;41.30;45.20;;;;;;5001907;28;20584;-73
2022/06/30 12:41:16;;;;;;;1.20;1.20;;;41.70;43.50;;;;;;5002542;28;20187;-73
2022/06/30 12:43:51;;;;;;;0.90;0.90;;;42.20;44.40;;;;;;5002457;28;20477;-73
2022/06/30 12:46:17;;;;;;;1.00;1.00;;;42.60;43.30;;;;;;5002053;28;20208;-73
2022/06/30 12:48:54;;;;;;;0.82;0.82;;;43.00;42.80;;;;;;4991100;28;20746;-74
2022/06/30 12:51:32;;;;;;;0.80;0.80;;;43.00;40.50;;;;;;5000851;28;20188;-73
2022/06/30 12:54:02;;;;;;;2.58;1.00;;;42.90;41.70;;;;;;4999436;28;20575;-72
2022/06/30 12:56:28;;;;;;;1.00;1.00;;;42.80;41.30;;;;;;5001142;28;20620;-72
2022/06/30 12:59:04;;;;;;;0.80;0.80;;;42.80;42.70;;;;;;4998904;28;20219;-73
2022/06/30 13:01:31;;;;;;;0.95;0.95;;;43.20;41.90;;;;;;5000750;28;20198;-73
2022/06/30 13:04:01;;;;;;;1.20;1.20;;;43.10;42.30;;;;;;4998322;28;20191;-72
2022/06/30 13:06:30;;;;;;;1.35;1.00;;;42.70;42.50;;;;;;5001367;28;20192;-71
2022/06/30 13:08:56;;;;;;;1.25;1.25;;;42.30;42.10;;;;;;5002010;28;20184;-73
2022/06/30 13:11:27;;;;;;;1.38;1.23;;;41.90;42.90;;;;;;5005684;28;20872;-73